createdAt,value
2019-01-14T00:02:24.271Z,97563.91
2019-01-14T00:04:55.540Z,97581.32
2019-01-14T00:07:18.623Z,97568.36
2019-01-14T00:09:44.803Z,97566.08
2019-01-14T00:12:11.049Z,97555.93
2019-01-14T00:14:37.248Z,97547.08
2019-01-14T00:17:05.104Z,97575.30
2019-01-14T00:19:31.415Z,97557.58
2019-01-14T00:21:57.905Z,97563.64
2019-01-14T00:24:24.107Z,97555.27
2019-01-14T00:26:50.478Z,97556.75
2019-01-14T00:29:16.658Z,97564.30
2019-01-14T00:31:42.883Z,97552.14
2019-01-14T00:34:09.724Z,97573.62
2019-01-14T00:36:35.988Z,97561.32
2019-01-14T00:39:05.510Z,97564.61
2019-01-14T00:41:32.019Z,97564.95
2019-01-14T00:43:58.249Z,97553.62
2019-01-14T00:46:24.468Z,97575.95
2019-01-14T00:48:51.000Z,97586.28
2019-01-14T00:51:17.180Z,97577.72
2019-01-14T00:53:43.662Z,97594.84
2019-01-14T00:56:09.897Z,97614.91
2019-01-14T00:58:36.108Z,97621.34
2019-01-14T01:01:02.540Z,97622.18
2019-01-14T01:03:29.037Z,97612.34
2019-01-14T01:05:55.201Z,97614.20
2019-01-14T01:08:21.437Z,97624.58
2019-01-14T01:10:47.687Z,97621.14
2019-01-14T01:13:14.289Z,97623.63
2019-01-14T01:15:40.570Z,97645.80
2019-01-14T01:18:06.791Z,97658.28
2019-01-14T01:20:33.419Z,97655.00
2019-01-14T01:22:59.634Z,97672.73
2019-01-14T01:25:25.979Z,97682.59
2019-01-14T01:27:52.228Z,97689.80
2019-01-14T01:30:18.407Z,97683.42
2019-01-14T01:32:44.729Z,97699.02
2019-01-14T01:35:12.633Z,97695.27
2019-01-14T01:37:38.935Z,97700.66
2019-01-14T01:40:12.601Z,97707.87
2019-01-14T01:42:38.853Z,97700.99
2019-01-14T01:45:08.549Z,97717.08
2019-01-14T01:47:34.980Z,97713.81
2019-01-14T01:50:01.147Z,97727.73
2019-01-14T01:52:27.354Z,97733.47
2019-01-14T01:54:53.597Z,97726.73
2019-01-14T01:57:19.831Z,97729.84
2019-01-14T01:59:46.565Z,97746.90
2019-01-14T02:02:13.190Z,97747.73
2019-01-14T02:04:39.424Z,97744.77
2019-01-14T02:07:05.625Z,97757.70
2019-01-14T02:09:31.852Z,97774.27
2019-01-14T02:11:58.222Z,97777.88
2019-01-14T02:14:24.749Z,97790.17
2019-01-14T02:16:51.039Z,97790.83
2019-01-14T02:19:17.232Z,97805.92
2019-01-14T02:21:43.430Z,97816.41
2019-01-14T02:24:09.705Z,97821.65
2019-01-14T02:26:35.963Z,97827.23
2019-01-14T02:29:03.555Z,97829.70
2019-01-14T02:31:29.774Z,97844.30
2019-01-14T02:33:56.007Z,97836.92
2019-01-14T02:36:22.205Z,97853.35
2019-01-14T02:38:48.699Z,97845.98
2019-01-14T02:41:14.926Z,97862.20
2019-01-14T02:43:41.266Z,97880.24
2019-01-14T02:46:07.500Z,97877.62
2019-01-14T02:48:33.704Z,97883.86
2019-01-14T02:50:59.894Z,97882.02
2019-01-14T02:53:26.176Z,97875.45
2019-01-14T02:55:52.656Z,97895.30
2019-01-14T02:58:18.974Z,97897.76
2019-01-14T03:00:45.165Z,97897.12
2019-01-14T03:03:11.343Z,97900.22
2019-01-14T03:05:37.636Z,97912.05
2019-01-14T03:08:03.965Z,97927.44
2019-01-14T03:10:30.156Z,97914.65
2019-01-14T03:12:56.367Z,97924.16
2019-01-14T03:15:23.197Z,97937.11
2019-01-14T03:17:49.357Z,97933.97
2019-01-14T03:20:16.075Z,97934.14
2019-01-14T03:22:42.355Z,97960.36
2019-01-14T03:25:11.200Z,97942.83
2019-01-14T03:27:37.740Z,97960.36
2019-01-14T03:30:09.372Z,97966.59
2019-01-14T03:32:36.471Z,97967.92
2019-01-14T03:35:05.539Z,97966.10
2019-01-14T03:37:31.796Z,97985.77
2019-01-14T03:39:58.025Z,97983.01
2019-01-14T03:42:24.210Z,97988.58
2019-01-14T03:44:50.452Z,97989.73
2019-01-14T03:47:16.647Z,97997.27
2019-01-14T03:49:42.911Z,98011.20
2019-01-14T03:52:09.105Z,98013.16
2019-01-14T03:54:35.538Z,98017.25
2019-01-14T03:57:02.127Z,98017.42
2019-01-14T03:59:28.370Z,98020.72
2019-01-14T04:01:54.862Z,98023.33
2019-01-14T04:04:21.067Z,98041.39
2019-01-14T04:06:47.241Z,98038.77
2019-01-14T04:09:13.440Z,98046.13
2019-01-14T04:11:39.666Z,98041.38
2019-01-14T04:14:05.869Z,98068.41
2019-01-14T04:16:39.169Z,98074.83
2019-01-14T04:19:05.399Z,98065.77
2019-01-14T04:21:31.591Z,98077.91
2019-01-14T04:23:57.954Z,98087.73
2019-01-14T04:26:24.157Z,98098.38
2019-01-14T04:28:50.366Z,98110.48
2019-01-14T04:31:19.261Z,98107.08
2019-01-14T04:33:45.457Z,98130.50
2019-01-14T04:36:11.683Z,98133.41
2019-01-14T04:38:38.404Z,98136.52
2019-01-14T04:41:04.634Z,98146.84
2019-01-14T04:43:30.816Z,98143.69
2019-01-14T04:45:57.041Z,98138.12
2019-01-14T04:48:23.257Z,98148.59
2019-01-14T04:50:49.576Z,98152.35
2019-01-14T04:53:15.690Z,98164.45
2019-01-14T04:55:41.913Z,98170.83
2019-01-14T04:58:08.164Z,98179.99
2019-01-14T05:00:34.406Z,98173.09
2019-01-14T05:03:00.988Z,98175.06
2019-01-14T05:05:27.619Z,98206.17
2019-01-14T05:07:54.157Z,98195.52
2019-01-14T05:10:20.572Z,98198.31
2019-01-14T05:12:47.045Z,98201.92
2019-01-14T05:15:13.353Z,98206.16
2019-01-14T05:17:39.726Z,98216.95
2019-01-14T05:20:11.612Z,98226.27
2019-01-14T05:22:37.938Z,98228.84
2019-01-14T05:25:06.703Z,98220.80
2019-01-14T05:27:33.473Z,98239.57
2019-01-14T05:29:59.640Z,98244.62
2019-01-14T05:32:25.956Z,98227.72
2019-01-14T05:34:52.217Z,98258.44
2019-01-14T05:37:18.420Z,98266.22
2019-01-14T05:39:44.681Z,98256.16
2019-01-14T05:42:10.895Z,98268.17
2019-01-14T05:44:37.073Z,98276.27
2019-01-14T05:47:03.333Z,98295.17
2019-01-14T05:49:29.781Z,98287.23
2019-01-14T05:51:56.025Z,98293.20
2019-01-14T05:54:22.538Z,98282.11
2019-01-14T05:56:48.995Z,98307.41
2019-01-14T05:59:15.199Z,98315.47
2019-01-14T06:01:41.468Z,98329.92
2019-01-14T06:04:07.648Z,98336.23
2019-01-14T06:06:33.879Z,98341.53
2019-01-14T06:09:00.102Z,98331.16
2019-01-14T06:11:26.324Z,98343.35
2019-01-14T06:13:52.825Z,98371.77
2019-01-14T06:16:19.041Z,98369.89
2019-01-14T06:18:45.247Z,98374.63
2019-01-14T06:21:11.480Z,98382.48
2019-01-14T06:23:37.675Z,98391.31
2019-01-14T06:26:04.100Z,98384.61
2019-01-14T06:28:30.300Z,98379.70
2019-01-14T06:30:56.554Z,98382.48
2019-01-14T06:33:22.742Z,98379.58
2019-01-14T06:35:48.948Z,98373.69
2019-01-14T06:38:15.482Z,98378.56
2019-01-14T06:40:41.684Z,98377.58
2019-01-14T06:43:07.966Z,98385.38
2019-01-14T06:45:34.166Z,98402.72
2019-01-14T06:48:02.285Z,98408.11
2019-01-14T06:50:28.472Z,98403.34
2019-01-14T06:52:54.669Z,98392.22
2019-01-14T06:55:20.988Z,98421.39
2019-01-14T06:57:47.221Z,98409.01
2019-01-14T07:00:24.093Z,98420.78
2019-01-14T07:02:50.627Z,98407.54
2019-01-14T07:05:18.432Z,98409.21
2019-01-14T07:07:44.734Z,98411.99
2019-01-14T07:10:16.615Z,98418.25
2019-01-14T07:12:42.865Z,98424.86
2019-01-14T07:15:09.358Z,98430.10
2019-01-14T07:17:35.560Z,98421.99
2019-01-14T07:20:05.048Z,98430.05
2019-01-14T07:22:31.253Z,98423.25
2019-01-14T07:24:57.594Z,98425.88
2019-01-14T07:27:23.804Z,98428.16
2019-01-14T07:29:51.136Z,98429.84
2019-01-14T07:32:17.466Z,98417.28
2019-01-14T07:34:43.639Z,98443.33
2019-01-14T07:37:10.146Z,98436.30
2019-01-14T07:39:36.377Z,98452.69
2019-01-14T07:42:02.748Z,98441.85
2019-01-14T07:44:29.978Z,98439.08
2019-01-14T07:46:56.189Z,98437.59
2019-01-14T07:49:22.393Z,98433.67
2019-01-14T07:51:48.920Z,98435.92
2019-01-14T07:54:15.052Z,98438.87
2019-01-14T07:56:42.200Z,98443.00
2019-01-14T07:59:08.924Z,98445.69
2019-01-14T08:01:35.088Z,98444.81
2019-01-14T08:04:01.320Z,98457.53
2019-01-14T08:06:27.555Z,98458.91
2019-01-14T08:08:53.785Z,98436.56
2019-01-14T08:11:19.994Z,98478.45
2019-01-14T08:13:46.745Z,98485.86
2019-01-14T08:16:12.950Z,98489.30
2019-01-14T08:18:39.147Z,98509.59
2019-01-14T08:21:05.435Z,98508.61
2019-01-14T08:23:31.694Z,98509.06
2019-01-14T08:25:57.890Z,98539.83
2019-01-14T08:28:24.108Z,98538.72
2019-01-14T08:30:50.316Z,98540.11
2019-01-14T08:33:16.546Z,98542.73
2019-01-14T08:35:42.772Z,98568.59
2019-01-14T08:38:11.875Z,98566.05
2019-01-14T08:40:38.203Z,98588.30
2019-01-14T08:43:04.875Z,98586.49
2019-01-14T08:45:31.161Z,98591.69
2019-01-14T08:47:57.495Z,98584.59
2019-01-14T08:50:23.689Z,98593.01
2019-01-14T08:52:50.268Z,98578.92
2019-01-14T08:55:16.872Z,98590.63
2019-01-14T08:57:43.192Z,98614.05
2019-01-14T09:00:16.568Z,98607.20
2019-01-14T09:02:44.765Z,98624.41
2019-01-14T09:05:11.234Z,98613.77
2019-01-14T09:07:39.594Z,98620.52
2019-01-14T09:10:15.722Z,98621.95
2019-01-14T09:12:43.175Z,98621.13
2019-01-14T09:15:16.590Z,98620.97
2019-01-14T09:17:43.528Z,98620.06
2019-01-14T09:20:17.819Z,98621.86
2019-01-14T09:22:44.077Z,98623.38
2019-01-14T09:25:10.678Z,98616.84
2019-01-14T09:27:37.648Z,98610.66
2019-01-14T09:30:17.378Z,98626.66
2019-01-14T09:32:44.180Z,98604.66
2019-01-14T09:35:10.575Z,98621.77
2019-01-14T09:37:36.790Z,98625.08
2019-01-14T09:40:12.932Z,98636.45
2019-01-14T09:42:39.351Z,98627.73
2019-01-14T09:45:07.962Z,98626.72
2019-01-14T09:47:34.202Z,98629.97
2019-01-14T09:50:05.137Z,98634.69
2019-01-14T09:52:31.653Z,98629.67
2019-01-14T09:54:57.865Z,98644.75
2019-01-14T09:57:24.044Z,98643.77
2019-01-14T09:59:52.242Z,98647.67
2019-01-14T10:02:21.660Z,98663.23
2019-01-14T10:04:47.808Z,98638.06
2019-01-14T10:07:14.029Z,98649.38
2019-01-14T10:09:40.258Z,98645.54
2019-01-14T10:12:06.510Z,98636.94
2019-01-14T10:14:32.726Z,98649.89
2019-01-14T10:16:59.132Z,98642.35
2019-01-14T10:19:25.599Z,98640.58
2019-01-14T10:21:51.754Z,98628.45
2019-01-14T10:24:18.064Z,98629.56
2019-01-14T10:26:44.407Z,98604.94
2019-01-14T10:29:10.670Z,98625.23
2019-01-14T10:31:37.058Z,98632.13
2019-01-14T10:34:03.374Z,98636.25
2019-01-14T10:36:29.634Z,98629.66
2019-01-14T10:38:55.846Z,98629.34
2019-01-14T10:41:22.053Z,98630.48
2019-01-14T10:43:48.257Z,98624.75
2019-01-14T10:46:14.556Z,98626.55
2019-01-14T10:48:40.764Z,98631.34
2019-01-14T10:51:07.375Z,98638.77
2019-01-14T10:53:33.603Z,98632.74
2019-01-14T10:55:59.771Z,98627.75
2019-01-14T10:58:26.112Z,98628.55
2019-01-14T11:00:52.300Z,98627.06
2019-01-14T11:03:18.532Z,98609.88
2019-01-14T11:05:44.820Z,98602.12
2019-01-14T11:08:10.988Z,98615.42
2019-01-14T11:10:37.213Z,98604.53
2019-01-14T11:13:04.031Z,98605.38
2019-01-14T11:15:30.253Z,98613.81
2019-01-14T11:17:56.417Z,98605.89
2019-01-14T11:20:26.461Z,98618.88
2019-01-14T11:22:52.757Z,98614.58
2019-01-14T11:25:19.159Z,98600.10
2019-01-14T11:27:45.337Z,98626.08
2019-01-14T11:30:22.106Z,98625.57
2019-01-14T11:32:48.592Z,98616.13
2019-01-14T11:35:14.888Z,98616.89
2019-01-14T11:37:41.088Z,98627.56
2019-01-14T11:40:11.494Z,98624.80
2019-01-14T11:42:37.675Z,98636.22
2019-01-14T11:45:08.287Z,98629.37
2019-01-14T11:47:34.475Z,98634.34
2019-01-14T11:50:00.775Z,98625.54
2019-01-14T11:52:26.948Z,98639.90
2019-01-14T11:54:53.247Z,98628.08
2019-01-14T11:57:21.555Z,98635.66
2019-01-14T11:59:48.096Z,98628.95
2019-01-14T12:02:14.389Z,98621.47
2019-01-14T12:04:42.499Z,98622.52
2019-01-14T12:07:08.676Z,98617.97
2019-01-14T12:09:36.797Z,98612.37
2019-01-14T12:12:03.190Z,98634.92
2019-01-14T12:14:31.375Z,98624.83
2019-01-14T12:16:59.536Z,98619.17
2019-01-14T12:19:25.777Z,98650.56
2019-01-14T12:21:51.982Z,98641.03
2019-01-14T12:24:18.353Z,98630.59
2019-01-14T12:26:44.959Z,98670.52
2019-01-14T12:29:13.679Z,98668.44
2019-01-14T12:31:40.246Z,98668.33
2019-01-14T12:34:06.459Z,98706.65
2019-01-14T12:36:32.641Z,98707.33
2019-01-14T12:39:00.759Z,98735.07
2019-01-14T12:41:29.025Z,98725.05
2019-01-14T12:43:55.367Z,98705.86
2019-01-14T12:46:21.792Z,98699.45
2019-01-14T12:48:52.537Z,98698.41
2019-01-14T12:51:18.855Z,98702.55
2019-01-14T12:53:45.140Z,98715.39
2019-01-14T12:56:11.338Z,98712.13
2019-01-14T12:58:37.692Z,98718.44
2019-01-14T13:01:03.946Z,98707.54
2019-01-14T13:03:31.185Z,98714.22
2019-01-14T13:05:57.383Z,98731.36
2019-01-14T13:08:23.567Z,98728.37
2019-01-14T13:10:50.235Z,98734.99
2019-01-14T13:13:16.748Z,98737.84
2019-01-14T13:15:42.956Z,98737.38
2019-01-14T13:18:09.113Z,98741.17
2019-01-14T13:20:35.398Z,98748.78
2019-01-14T13:23:01.612Z,98750.58
2019-01-14T13:25:27.817Z,98752.77
2019-01-14T13:27:56.806Z,98764.84
2019-01-14T13:30:26.926Z,98767.98
2019-01-14T13:32:56.597Z,98786.70
2019-01-14T13:35:22.929Z,98777.83
2019-01-14T13:37:50.079Z,98770.78
2019-01-14T13:40:16.346Z,98761.17
2019-01-14T13:42:42.737Z,98764.75
2019-01-14T13:45:18.187Z,98777.12
2019-01-14T13:47:44.605Z,98775.58
2019-01-14T13:50:14.916Z,98790.16
2019-01-14T13:52:44.131Z,98774.92
2019-01-14T13:55:10.701Z,98773.08
2019-01-14T13:57:36.927Z,98790.60
2019-01-14T14:00:11.406Z,98781.89
2019-01-14T14:02:37.584Z,98806.54
2019-01-14T14:05:06.121Z,98807.19
2019-01-14T14:07:32.372Z,98825.61
2019-01-14T14:09:58.567Z,98837.45
2019-01-14T14:12:24.816Z,98850.30
2019-01-14T14:14:51.012Z,98864.63
2019-01-14T14:17:17.669Z,98872.33
2019-01-14T14:19:43.827Z,98888.80
2019-01-14T14:22:11.749Z,98886.64
2019-01-14T14:24:38.247Z,98884.32
2019-01-14T14:27:04.523Z,98911.37
2019-01-14T14:29:30.743Z,98896.66
2019-01-14T14:31:56.941Z,98867.88
2019-01-14T14:34:23.120Z,98851.97
2019-01-14T14:36:49.695Z,98862.00
2019-01-14T14:39:15.886Z,98851.20
2019-01-14T14:41:42.093Z,98867.83
2019-01-14T14:44:08.309Z,98876.95
2019-01-14T14:46:34.844Z,98881.28
2019-01-14T14:49:01.024Z,98883.83
2019-01-14T14:51:27.237Z,98894.41
2019-01-14T14:53:53.756Z,98882.51
2019-01-14T14:56:20.008Z,98869.95
2019-01-14T14:58:46.262Z,98867.99
2019-01-14T15:01:12.759Z,98877.07
2019-01-14T15:03:38.929Z,98877.89
2019-01-14T15:06:05.142Z,98873.87
2019-01-14T15:08:31.680Z,98876.05
2019-01-14T15:11:00.828Z,98884.56
2019-01-14T15:13:27.005Z,98886.41
2019-01-14T15:15:53.236Z,98886.09
2019-01-14T15:18:19.766Z,98889.02
2019-01-14T15:20:45.950Z,98899.94
2019-01-14T15:23:12.172Z,98896.94
2019-01-14T15:25:38.356Z,98891.73
2019-01-14T15:28:04.562Z,98916.08
2019-01-14T15:30:31.149Z,98918.51
2019-01-14T15:32:57.395Z,98930.25
2019-01-14T15:35:24.996Z,98923.51
2019-01-14T15:37:51.317Z,98945.77
2019-01-14T15:40:19.398Z,98958.81
2019-01-14T15:42:45.637Z,98964.84
2019-01-14T15:45:18.091Z,98970.06
2019-01-14T15:47:44.434Z,98978.55
2019-01-14T15:50:12.503Z,98980.00
2019-01-14T15:52:38.719Z,99002.09
2019-01-14T15:55:12.992Z,99015.47
2019-01-14T15:57:39.308Z,99027.51
2019-01-14T16:00:12.297Z,99023.56
2019-01-14T16:02:38.553Z,99035.61
2019-01-14T16:05:05.946Z,99042.97
2019-01-14T16:07:32.185Z,99050.53
2019-01-14T16:09:58.668Z,99051.25
2019-01-14T16:12:24.891Z,99056.22
2019-01-14T16:14:51.099Z,99057.77
2019-01-14T16:17:17.350Z,99071.04
2019-01-14T16:19:43.540Z,99066.76
2019-01-14T16:22:09.756Z,99080.48
2019-01-14T16:24:35.959Z,99087.92
2019-01-14T16:27:03.651Z,99094.36
2019-01-14T16:29:29.833Z,99098.03
2019-01-14T16:31:56.075Z,99102.58
2019-01-14T16:34:22.244Z,99104.45
2019-01-14T16:36:48.427Z,99100.44
2019-01-14T16:39:14.746Z,99115.86
2019-01-14T16:41:40.937Z,99109.73
2019-01-14T16:44:07.429Z,99118.44
2019-01-14T16:46:33.634Z,99126.05
2019-01-14T16:48:59.862Z,99116.14
2019-01-14T16:51:26.377Z,99135.00
2019-01-14T16:53:52.731Z,99145.67
2019-01-14T16:56:18.908Z,99149.71
2019-01-14T16:58:45.248Z,99152.30
2019-01-14T17:01:12.117Z,99161.36
2019-01-14T17:03:38.318Z,99170.31
2019-01-14T17:06:04.536Z,99176.80
2019-01-14T17:08:30.805Z,99174.19
2019-01-14T17:10:56.979Z,99183.96
2019-01-14T17:13:23.513Z,99191.78
2019-01-14T17:15:49.731Z,99206.09
2019-01-14T17:18:15.950Z,99208.53
2019-01-14T17:20:42.452Z,99206.91
2019-01-14T17:23:08.942Z,99214.43
2019-01-14T17:25:35.168Z,99241.13
2019-01-14T17:28:02.077Z,99233.13
2019-01-14T17:30:28.257Z,99235.83
2019-01-14T17:32:54.648Z,99240.84
2019-01-14T17:35:20.855Z,99240.88
2019-01-14T17:37:47.100Z,99243.92
2019-01-14T17:40:17.302Z,99250.91
2019-01-14T17:42:43.656Z,99261.45
2019-01-14T17:45:09.960Z,99260.93
2019-01-14T17:47:37.586Z,99266.64
2019-01-14T17:50:09.056Z,99266.45
2019-01-14T17:52:35.213Z,99274.10
2019-01-14T17:55:01.457Z,99271.98
2019-01-14T17:57:27.721Z,99271.28
2019-01-14T17:59:54.008Z,99273.88
2019-01-14T18:02:27.798Z,99275.50
2019-01-14T18:04:53.869Z,99280.06
2019-01-14T18:07:20.061Z,99278.89
2019-01-14T18:09:46.299Z,99283.94
2019-01-14T18:12:12.505Z,99290.78
2019-01-14T18:14:40.318Z,99292.41
2019-01-14T18:17:06.517Z,99306.18
2019-01-14T18:19:32.777Z,99308.12
2019-01-14T18:21:59.262Z,99309.73
2019-01-14T18:24:25.512Z,99312.80
2019-01-14T18:26:51.893Z,99318.28
2019-01-14T18:29:18.195Z,99319.58
2019-01-14T18:31:44.395Z,99327.70
2019-01-14T18:34:10.706Z,99316.13
2019-01-14T18:36:36.894Z,99329.14
2019-01-14T18:39:06.308Z,99332.47
2019-01-14T18:41:32.570Z,99340.27
2019-01-14T18:43:58.785Z,99338.55
2019-01-14T18:46:25.197Z,99345.88
2019-01-14T18:48:51.451Z,99353.93
2019-01-14T18:51:17.630Z,99350.02
2019-01-14T18:53:43.813Z,99355.05
2019-01-14T18:56:10.454Z,99366.43
2019-01-14T18:58:36.781Z,99374.08
2019-01-14T19:01:02.993Z,99380.28
2019-01-14T19:03:29.183Z,99379.61
2019-01-14T19:05:56.299Z,99381.68
2019-01-14T19:08:22.475Z,99386.84
2019-01-14T19:10:54.329Z,99385.39
2019-01-14T19:13:17.159Z,99386.78
2019-01-14T19:15:43.494Z,99384.95
2019-01-14T19:18:10.082Z,99397.48
2019-01-14T19:20:37.084Z,99404.31
2019-01-14T19:23:03.893Z,99390.22
2019-01-14T19:25:30.488Z,99408.76
2019-01-14T19:27:56.632Z,99412.61
2019-01-14T19:30:25.605Z,99410.93
2019-01-14T19:32:51.818Z,99417.86
2019-01-14T19:35:18.109Z,99417.69
2019-01-14T19:37:44.420Z,99426.53
2019-01-14T19:40:14.745Z,99434.20
2019-01-14T19:42:40.933Z,99432.27
2019-01-14T19:45:10.510Z,99435.67
2019-01-14T19:47:40.142Z,99442.66
2019-01-14T19:50:14.427Z,99445.33
2019-01-14T19:52:40.584Z,99456.06
2019-01-14T19:55:07.021Z,99453.20
2019-01-14T19:57:33.287Z,99461.25
2019-01-14T20:00:01.775Z,99463.96
2019-01-14T20:02:29.940Z,99451.10
2019-01-14T20:04:56.498Z,99464.68
2019-01-14T20:07:24.747Z,99469.45
2019-01-14T20:09:50.948Z,99463.38
2019-01-14T20:12:18.453Z,99475.30
2019-01-14T20:14:47.021Z,99473.79
2019-01-14T20:17:13.366Z,99472.54
2019-01-14T20:19:43.726Z,99475.09
2019-01-14T20:22:09.998Z,99483.12
2019-01-14T20:24:36.201Z,99468.03
2019-01-14T20:27:05.533Z,99482.09
2019-01-14T20:29:34.143Z,99494.49
2019-01-14T20:32:05.619Z,99485.56
2019-01-14T20:34:32.214Z,99492.78
2019-01-14T20:36:58.646Z,99494.77
2019-01-14T20:39:28.975Z,99495.97
2019-01-14T20:41:58.142Z,99483.60
2019-01-14T20:44:27.313Z,99501.15
2019-01-14T20:46:54.428Z,99509.77
2019-01-14T20:49:20.687Z,99515.17
2019-01-14T20:51:47.230Z,99513.48
2019-01-14T20:54:13.549Z,99520.72
2019-01-14T20:56:40.107Z,99525.05
2019-01-14T20:59:06.866Z,99535.20
2019-01-14T21:01:33.221Z,99535.09
2019-01-14T21:03:59.868Z,99525.51
2019-01-14T21:06:28.181Z,99532.91
2019-01-14T21:08:55.383Z,99536.01
2019-01-14T21:11:24.073Z,99530.00
2019-01-14T21:13:53.276Z,99530.89
2019-01-14T21:16:20.242Z,99535.94
2019-01-14T21:18:48.383Z,99526.52
2019-01-14T21:21:15.110Z,99534.81
2019-01-14T21:23:41.466Z,99531.13
2019-01-14T21:26:12.894Z,99536.58
2019-01-14T21:28:44.380Z,99536.40
2019-01-14T21:31:10.869Z,99528.52
2019-01-14T21:33:38.396Z,99526.39
2019-01-14T21:36:05.449Z,99526.41
2019-01-14T21:38:31.908Z,99530.19
2019-01-14T21:40:58.644Z,99533.92
2019-01-14T21:43:25.122Z,99531.87
2019-01-14T21:45:51.924Z,99525.23
2019-01-14T21:48:18.194Z,99548.11
2019-01-14T21:50:47.757Z,99543.42
2019-01-14T21:53:14.359Z,99534.39
2019-01-14T21:55:41.769Z,99537.23
2019-01-14T21:58:11.409Z,99534.01
2019-01-14T22:00:38.198Z,99546.09
2019-01-14T22:03:05.090Z,99543.86
2019-01-14T22:05:33.964Z,99542.89
2019-01-14T22:08:02.638Z,99541.44
2019-01-14T22:10:28.925Z,99537.88
2019-01-14T22:12:55.332Z,99537.89
2019-01-14T22:15:21.945Z,99537.13
2019-01-14T22:17:48.203Z,99544.45
2019-01-14T22:20:21.428Z,99552.48
2019-01-14T22:22:47.694Z,99554.06
2019-01-14T22:25:13.925Z,99552.45
2019-01-14T22:27:40.299Z,99534.21
2019-01-14T22:30:16.926Z,99545.86
2019-01-14T22:32:43.220Z,99548.89
2019-01-14T22:35:09.450Z,99543.33
2019-01-14T22:37:42.407Z,99552.88
2019-01-14T22:40:13.508Z,99561.45
2019-01-14T22:42:39.677Z,99547.17
2019-01-14T22:45:08.925Z,99525.66
2019-01-14T22:47:35.317Z,99563.45
2019-01-14T22:50:05.931Z,99564.05
2019-01-14T22:52:32.274Z,99554.27
2019-01-14T22:54:58.457Z,99558.98
2019-01-14T22:57:24.799Z,99545.88
2019-01-14T22:59:51.019Z,99558.31
2019-01-14T23:02:17.213Z,99555.92
2019-01-14T23:04:43.725Z,99551.00
2019-01-14T23:07:10.027Z,99547.91
2019-01-14T23:09:36.375Z,99547.92
2019-01-14T23:12:02.915Z,99551.63
2019-01-14T23:14:29.148Z,99556.44
2019-01-14T23:16:55.484Z,99555.77
2019-01-14T23:19:21.749Z,99557.52
2019-01-14T23:21:47.933Z,99550.84
2019-01-14T23:24:14.216Z,99551.22
2019-01-14T23:26:40.383Z,99560.44
2019-01-14T23:29:06.673Z,99549.63
2019-01-14T23:31:33.133Z,99546.86
2019-01-14T23:33:59.377Z,99563.59
2019-01-14T23:36:26.017Z,99547.58
2019-01-14T23:38:52.415Z,99552.56
2019-01-14T23:41:20.597Z,99559.97
2019-01-14T23:43:46.763Z,99559.19
2019-01-14T23:46:13.006Z,99552.90
2019-01-14T23:48:39.230Z,99554.44
2019-01-14T23:51:05.458Z,99556.83
2019-01-14T23:53:31.959Z,99542.97
2019-01-14T23:55:58.288Z,99532.78
2019-01-14T23:58:24.674Z,99538.41
